Time;durP1;ratioP1;P1;durP2;ratioP2;P2;SDS_P1;SDS_P2;PMS_P1;PMS_P2;Temp;Humidity;BMP_temperature;BMP_pressure;BME280_temperature;BME280_humidity;BME280_pressure;Samples;Min_cycle;Max_cycle;Signal;HPM_P1;HPM_P2
2023/05/08 00:00:38;;;;;;;18.13;7.43;;;5.40;99.90;;;4.02;95.64;102390.44;5021739;28;20567;-75
2023/05/08 00:03:04;;;;;;;12.88;5.50;;;5.40;99.90;;;4.00;95.79;102392.16;5006082;28;20041;-75
2023/05/08 00:05:30;;;;;;;12.63;5.90;;;5.40;99.90;;;3.98;95.63;102402.56;5009711;28;20072;-75
2023/05/08 00:08:00;;;;;;;13.70;6.40;;;5.40;99.90;;;3.92;95.27;102397.31;5022847;28;20038;-75
2023/05/08 00:10:27;;;;;;;13.43;6.68;;;5.30;99.90;;;3.87;94.60;102393.81;5011689;28;20037;-75
2023/05/08 00:12:54;;;;;;;16.92;6.13;;;5.30;99.90;;;3.82;94.64;102405.91;5031033;28;20034;-76
2023/05/08 00:15:20;;;;;;;13.20;5.80;;;5.20;99.90;;;3.74;94.53;102395.44;5010156;28;20473;-75
2023/05/08 00:17:48;;;;;;;9.02;5.70;;;5.20;99.90;;;3.73;94.26;102406.69;5004281;28;20067;-76
2023/05/08 00:20:14;;;;;;;9.02;3.80;;;5.10;99.90;;;3.66;93.78;102411.00;4991135;28;20021;-76
2023/05/08 00:22:40;;;;;;;9.75;5.68;;;5.10;99.90;;;3.57;93.01;102405.69;5016872;28;20034;-76
2023/05/08 00:25:06;;;;;;;10.75;5.72;;;5.00;99.90;;;3.49;92.42;102410.81;5024667;28;20030;-76
2023/05/08 00:27:32;;;;;;;9.98;4.78;;;4.90;99.90;;;3.40;92.13;102405.53;5010308;28;20034;-76
2023/05/08 00:30:00;;;;;;;10.70;6.03;;;4.80;99.90;;;3.31;92.06;102413.25;5017443;28;20951;-75
2023/05/08 00:32:28;;;;;;;12.57;5.60;;;4.70;99.90;;;3.26;92.68;102404.50;4984776;28;20042;-76
2023/05/08 00:34:54;;;;;;;12.77;6.63;;;4.70;99.90;;;3.26;93.03;102409.72;5009477;28;20034;-76
2023/05/08 00:37:21;;;;;;;11.43;6.45;;;4.70;99.90;;;3.27;93.82;102411.47;5024356;28;20181;-76
2023/05/08 00:39:47;;;;;;;12.18;6.20;;;4.70;99.90;;;3.24;93.75;102412.31;5015742;28;20053;-76
2023/05/08 00:42:12;;;;;;;11.85;5.50;;;4.70;99.90;;;3.23;93.89;102417.50;5008834;28;20105;-76
2023/05/08 00:44:39;;;;;;;7.07;3.75;;;4.60;99.90;;;3.16;93.59;102418.31;5015254;28;20037;-76
2023/05/08 00:47:06;;;;;;;6.05;2.95;;;4.60;99.90;;;3.03;92.61;102412.94;4993793;28;20038;-75
2023/05/08 00:49:34;;;;;;;4.03;2.45;;;4.40;99.90;;;2.91;91.19;102422.34;5021442;28;20068;-76
2023/05/08 00:52:01;;;;;;;5.70;3.42;;;4.30;99.90;;;2.74;89.98;102414.31;5026301;28;20041;-76
2023/05/08 00:54:28;;;;;;;6.55;3.63;;;4.20;99.90;;;2.60;88.96;102412.41;5008292;28;20042;-75
2023/05/08 00:56:55;;;;;;;7.78;2.45;;;4.00;99.90;;;2.49;88.42;102416.59;5023178;28;20506;-76
2023/05/08 00:59:24;;;;;;;7.72;4.20;;;3.90;99.90;;;2.37;87.67;102414.69;5006964;23;20744;-76
2023/05/08 01:01:50;;;;;;;11.23;5.82;;;3.80;99.90;;;2.28;87.65;102416.28;5006686;28;20041;-75
2023/05/08 01:04:23;;;;;;;9.38;6.40;;;3.80;99.90;;;2.28;89.07;102411.09;5021695;28;20494;-75
2023/05/08 01:06:49;;;;;;;11.43;6.07;;;3.80;99.90;;;2.37;91.64;102424.22;5008913;28;20040;-76
2023/05/08 01:09:15;;;;;;;14.80;7.47;;;3.90;99.90;;;2.47;93.73;102431.31;5001326;28;20497;-75
2023/05/08 01:11:50;;;;;;;13.13;7.20;;;4.00;99.90;;;2.61;95.91;102436.69;5000060;28;20041;-75
2023/05/08 01:14:39;;;;;;;13.40;7.00;;;4.10;99.90;;;2.69;97.42;102436.81;5008245;28;20101;-76
2023/05/08 01:17:49;;;;;;;10.95;7.00;;;4.20;99.90;;;2.74;98.24;102437.72;5026904;28;20506;-76
2023/05/08 01:20:43;;;;;;;11.10;7.05;;;4.20;99.90;;;2.75;99.20;102439.50;5003762;28;20037;-76
2023/05/08 01:23:18;;;;;;;14.73;5.90;;;4.20;99.90;;;2.72;98.88;102445.53;5005471;28;20038;-75
2023/05/08 01:26:33;;;;;;;9.93;5.97;;;4.20;99.90;;;2.60;97.63;102451.44;5009338;28;20041;-76
2023/05/08 01:29:29;;;;;;;4.70;3.40;;;4.00;99.90;;;2.38;96.14;102449.38;4998955;28;20021;-76
2023/05/08 01:32:23;;;;;;;2.40;1.80;;;3.80;99.90;;;2.15;94.83;102449.88;5007792;28;20033;-76
2023/05/08 01:35:33;;;;;;;10.73;5.97;;;3.60;99.90;;;2.03;93.44;102455.78;4988256;28;20478;-76
2023/05/08 01:38:31;;;;;;;9.98;6.18;;;3.50;99.90;;;1.97;94.11;102449.59;4953477;28;20042;-76
2023/05/08 01:41:13;;;;;;;10.38;6.40;;;3.60;99.90;;;2.07;96.52;102456.69;4968004;28;20109;-76
2023/05/08 01:44:12;;;;;;;10.93;6.53;;;3.70;99.90;;;2.21;99.03;102456.91;4969250;28;20028;-75
2023/05/08 01:46:38;;;;;;;12.40;6.95;;;3.80;99.90;;;2.31;100.00;102461.41;4999438;28;20037;-75
2023/05/08 01:49:32;;;;;;;10.95;7.18;;;3.90;99.90;;;2.42;100.00;102466.78;5005496;28;20037;-76
2023/05/08 01:52:04;;;;;;;10.65;6.95;;;4.00;99.90;;;2.48;100.00;102466.84;5002510;28;20029;-76
2023/05/08 01:54:41;;;;;;;13.98;7.38;;;4.00;99.90;;;2.52;100.00;102465.16;4985009;28;20030;-76
2023/05/08 01:57:10;;;;;;;11.68;7.20;;;4.10;99.90;;;2.57;100.00;102472.19;4997325;28;20029;-76
2023/05/08 01:59:38;;;;;;;14.77;8.05;;;4.10;99.90;;;2.61;100.00;102473.09;4967122;28;1099669;-76
2023/05/08 02:02:05;;;;;;;15.32;7.50;;;4.10;99.90;;;2.65;100.00;102483.56;4957471;28;20041;-76
2023/05/08 02:04:33;;;;;;;10.75;6.85;;;4.10;99.90;;;2.65;100.00;102478.34;5010796;28;20060;-75
2023/05/08 02:07:00;;;;;;;12.50;7.72;;;4.20;99.90;;;2.67;100.00;102484.47;4999817;28;20527;-76
2023/05/08 02:09:30;;;;;;;15.77;7.97;;;4.10;99.90;;;2.69;100.00;102487.09;4998920;28;20034;-76
2023/05/08 02:11:58;;;;;;;11.85;7.95;;;4.20;99.90;;;2.69;100.00;102481.03;5008693;28;20037;-75
2023/05/08 02:14:25;;;;;;;10.50;7.95;;;4.10;99.90;;;2.71;100.00;102479.31;5006108;28;20025;-76
2023/05/08 02:16:54;;;;;;;10.43;7.38;;;4.20;99.90;;;2.70;100.00;102483.66;4999028;28;20092;-76
2023/05/08 02:19:24;;;;;;;15.98;8.52;;;4.20;99.90;;;2.70;100.00;102481.06;4988783;28;20049;-76
2023/05/08 02:21:50;;;;;;;17.88;8.40;;;4.20;99.90;;;2.71;100.00;102481.91;4980124;28;20052;-76
2023/05/08 02:24:17;;;;;;;16.13;9.07;;;4.20;99.90;;;2.68;100.00;102480.16;4998406;28;20045;-75
2023/05/08 02:26:45;;;;;;;17.48;8.52;;;4.20;99.90;;;2.66;100.00;102474.91;4989824;28;20095;-75
2023/05/08 02:29:11;;;;;;;17.42;9.38;;;4.20;99.90;;;2.67;100.00;102474.06;5007539;28;20394;-76
2023/05/08 02:31:39;;;;;;;13.13;8.20;;;4.20;99.90;;;2.69;100.00;102474.09;4991261;28;20254;-76
2023/05/08 02:34:08;;;;;;;13.15;7.75;;;4.20;99.90;;;2.67;100.00;102474.06;4981565;28;20206;-76
2023/05/08 02:36:36;;;;;;;10.48;7.55;;;4.20;99.90;;;2.70;100.00;102474.94;4996787;28;20101;-76
2023/05/08 02:39:02;;;;;;;11.65;7.45;;;4.20;99.90;;;2.71;100.00;102485.38;4996745;28;20557;-76
2023/05/08 02:41:33;;;;;;;10.45;7.72;;;4.20;99.90;;;2.72;100.00;102484.56;4995280;28;20453;-76
2023/05/08 02:43:59;;;;;;;12.98;7.82;;;4.20;99.90;;;2.73;100.00;102482.81;4986973;28;20033;-76
2023/05/08 02:46:41;;;;;;;12.30;7.93;;;4.20;99.90;;;2.75;100.00;102475.91;4986933;28;20034;-76
2023/05/08 02:49:43;;;;;;;14.95;8.63;;;4.20;99.90;;;2.73;100.00;102481.09;4997967;28;20042;-76
2023/05/08 02:53:01;;;;;;;16.92;8.35;;;4.20;99.90;;;2.67;100.00;102468.00;5001152;28;20038;-76
2023/05/08 02:55:38;;;;;;;15.95;7.90;;;4.20;99.90;;;2.65;100.00;102473.16;4987046;28;20112;-76
2023/05/08 02:58:23;;;;;;;14.82;8.07;;;4.20;99.90;;;2.65;100.00;102478.34;5006523;28;20046;-76
2023/05/08 03:01:24;;;;;;;11.25;7.47;;;4.20;99.90;;;2.64;100.00;102481.81;5006637;28;20041;-76
2023/05/08 03:04:14;;;;;;;14.95;8.10;;;4.20;99.90;;;2.64;100.00;102476.63;5008846;28;20042;-76
2023/05/08 03:06:46;;;;;;;12.45;7.47;;;4.20;99.90;;;2.61;100.00;102476.59;4980199;28;20048;-76
2023/05/08 03:09:19;;;;;;;12.43;7.82;;;4.20;99.90;;;2.64;100.00;102473.16;5006910;28;20552;-76
2023/05/08 03:11:52;;;;;;;15.50;8.75;;;4.10;99.90;;;2.69;100.00;102475.81;5018013;28;20541;-76
2023/05/08 03:14:21;;;;;;;12.90;8.40;;;4.20;99.90;;;2.72;100.00;102478.44;5004824;28;20032;-76
2023/05/08 03:16:51;;;;;;;17.13;8.35;;;4.20;99.90;;;2.73;100.00;102478.47;4977272;28;20460;-76
2023/05/08 03:19:32;;;;;;;11.30;7.50;;;4.20;99.90;;;2.71;100.00;102467.19;4994440;28;20134;-76
2023/05/08 03:22:01;;;;;;;13.90;7.85;;;4.20;99.90;;;2.74;100.00;102471.53;5008237;28;20040;-76
2023/05/08 03:24:30;;;;;;;10.88;7.90;;;4.20;99.90;;;2.75;100.00;102466.38;5010326;28;20402;-76
2023/05/08 03:26:57;;;;;;;11.60;7.30;;;4.30;99.90;;;2.76;100.00;102472.44;5010823;28;20122;-76
2023/05/08 03:29:26;;;;;;;11.38;7.40;;;4.30;99.90;;;2.77;100.00;102469.00;5007698;28;20463;-76
2023/05/08 03:31:53;;;;;;;11.48;7.88;;;4.30;99.90;;;2.80;100.00;102469.91;4998488;28;20125;-76
2023/05/08 03:34:20;;;;;;;13.20;7.25;;;4.40;99.90;;;2.85;100.00;102470.84;4992404;28;20029;-76
2023/05/08 03:36:48;;;;;;;10.10;7.22;;;4.40;99.90;;;2.94;100.00;102472.69;5025721;28;20710;-76
2023/05/08 03:39:14;;;;;;;13.30;7.18;;;4.40;99.90;;;3.00;100.00;102475.38;4999381;28;20067;-76
2023/05/08 03:41:40;;;;;;;12.18;7.47;;;4.40;99.90;;;3.06;100.00;102478.03;5003029;28;20048;-76
2023/05/08 03:44:06;;;;;;;13.85;7.63;;;4.50;99.90;;;3.10;100.00;102478.97;5000437;28;20152;-76
2023/05/08 03:46:34;;;;;;;10.13;7.13;;;4.60;99.90;;;3.17;100.00;102483.38;4991831;28;20030;-76
2023/05/08 03:49:03;;;;;;;11.40;7.47;;;4.60;99.90;;;3.22;100.00;102483.47;4994317;28;20103;-76
2023/05/08 03:51:31;;;;;;;11.10;7.70;;;4.60;99.90;;;3.27;100.00;102480.03;4984849;28;20471;-75
2023/05/08 03:53:56;;;;;;;14.20;7.32;;;4.70;99.90;;;3.35;100.00;102481.84;5009680;28;20465;-76
2023/05/08 03:56:22;;;;;;;11.35;6.55;;;4.80;99.90;;;3.41;100.00;102481.91;5000982;28;20102;-76
2023/05/08 03:58:55;;;;;;;10.00;6.63;;;4.80;99.90;;;3.45;100.00;102479.34;5001039;28;20034;-76
2023/05/08 04:01:39;;;;;;;10.95;6.60;;;4.90;99.90;;;3.64;100.00;102482.19;5007187;28;20045;-76
2023/05/08 04:04:36;;;;;;;13.93;7.38;;;5.10;99.90;;;3.94;100.00;102485.94;5007925;28;20538;-76
2023/05/08 04:07:28;;;;;;;12.48;6.35;;;6.50;99.90;;;5.90;99.17;102510.44;5011640;28;20057;-76
2023/05/08 04:09:54;;;;;;;8.82;5.55;;;8.50;99.90;;;8.39;91.23;102514.78;5006789;28;20402;-76
2023/05/08 04:12:33;;;;;;;11.38;5.85;;;10.20;99.90;;;10.47;79.93;102522.63;5002714;28;20040;-76
2023/05/08 04:15:23;;;;;;;8.25;4.60;;;11.80;99.90;;;12.56;69.47;102523.38;4995031;28;20041;-76
2023/05/08 04:17:56;;;;;;;11.30;5.30;;;13.20;99.90;;;13.59;62.59;102528.44;5007202;28;20037;-77
2023/05/08 04:20:26;;;;;;;5.97;4.25;;;14.30;99.90;;;14.99;59.35;102526.44;4988942;28;20026;-76
2023/05/08 04:22:54;;;;;;;6.15;4.03;;;15.40;99.90;;;16.45;55.81;102544.59;5009348;28;20433;-76
2023/05/08 04:25:21;;;;;;;7.88;4.38;;;16.50;99.90;;;17.80;52.47;102551.84;5010008;28;20450;-76
2023/05/08 04:27:50;;;;;;;8.80;3.75;;;17.50;99.90;;;18.90;49.41;102568.63;5014572;28;20042;-76
2023/05/08 04:30:16;;;;;;;6.43;4.07;;;18.50;99.20;;;20.04;46.78;102582.00;4998290;28;20113;-76
2023/05/08 04:32:43;;;;;;;6.32;4.00;;;19.40;99.60;;;21.08;45.27;102582.97;5000179;28;20033;-76
2023/05/08 04:35:11;;;;;;;7.50;3.75;;;20.10;97.00;;;21.92;43.33;102600.91;5010127;28;20367;-76
2023/05/08 04:37:39;;;;;;;7.45;3.67;;;20.80;95.00;;;22.68;41.42;102609.34;4988497;28;20037;-76
2023/05/08 04:40:06;;;;;;;5.22;3.92;;;21.40;93.90;;;23.12;40.54;102617.03;5006826;28;20430;-76
2023/05/08 04:42:35;;;;;;;6.20;3.30;;;21.90;93.10;;;23.69;39.43;102636.31;5005662;28;20037;-76
2023/05/08 04:45:01;;;;;;;8.32;3.85;;;22.30;92.90;;;24.38;38.29;102655.47;5012415;28;20549;-76
2023/05/08 04:47:27;;;;;;;6.60;3.85;;;22.60;91.80;;;24.37;37.85;102653.78;5011144;28;20565;-76
2023/05/08 04:49:53;;;;;;;10.23;3.95;;;22.80;91.70;;;24.99;37.20;102676.94;5008327;28;20046;-76
2023/05/08 04:52:18;;;;;;;7.18;4.00;;;23.00;91.90;;;25.29;36.67;102687.19;5007040;28;20184;-76
2023/05/08 04:54:44;;;;;;;5.93;3.83;;;23.30;91.20;;;25.96;35.40;102689.06;5007854;28;20040;-76
2023/05/08 04:57:10;;;;;;;;;;;23.30;91.60;;;26.43;34.63;102696.06;4993739;28;20752;-76
2023/05/08 04:59:36;;;;;;;5.03;3.85;;;23.70;87.70;;;25.84;35.05;102697.25;5007838;28;19917;-76
2023/05/08 05:02:01;;;;;;;;;;;23.70;90.00;;;27.21;34.80;102727.28;5009291;28;20068;-76
2023/05/08 05:04:32;;;;;;;4.38;3.35;;;24.10;87.60;;;27.13;33.84;102735.22;4998354;28;20371;-76
2023/05/08 05:06:58;;;;;;;5.32;3.40;;;23.90;87.00;;;25.50;34.74;102716.13;5003466;28;20050;-75
2023/05/08 05:09:24;;;;;;;7.65;3.88;;;23.80;85.40;;;26.35;33.89;102729.97;5005172;28;20398;-76
2023/05/08 05:11:50;;;;;;;7.45;3.63;;;23.90;86.40;;;26.35;33.55;102739.88;4975399;28;20403;-76
2023/05/08 05:14:16;;;;;;;4.95;3.55;;;23.60;84.90;;;25.75;34.37;102744.72;4964464;28;20037;-77
2023/05/08 05:16:42;;;;;;;5.07;3.28;;;23.80;88.10;;;27.09;33.09;102764.34;4992282;28;20048;-77
2023/05/08 05:19:11;;;;;;;6.50;3.78;;;24.00;85.20;;;26.74;32.98;102761.94;4979357;28;20026;-76
2023/05/08 05:21:37;;;;;;;5.72;3.72;;;24.10;86.00;;;27.02;32.26;102771.28;4974490;28;20041;-77
2023/05/08 05:24:04;;;;;;;6.88;3.83;;;24.20;86.10;;;27.90;31.68;102780.81;4947007;28;20407;-77
2023/05/08 05:26:31;;;;;;;7.15;3.58;;;23.70;83.30;;;25.33;34.44;102768.69;4964537;28;20040;-77
2023/05/08 05:28:57;;;;;;;5.03;3.45;;;23.50;83.70;;;25.36;34.04;102769.31;4972654;28;20040;-77
2023/05/08 05:31:29;;;;;;;4.97;3.60;;;23.10;85.90;;;25.29;34.13;102759.09;4969648;28;20029;-76
2023/05/08 05:33:55;;;;;;;4.97;3.30;;;23.50;85.40;;;26.26;32.57;102786.56;4980462;28;20493;-76
2023/05/08 05:36:21;;;;;;;4.35;3.22;;;23.60;86.00;;;25.80;32.67;102785.69;4992389;28;20064;-76
2023/05/08 05:38:47;;;;;;;6.22;3.85;;;22.90;84.10;;;23.08;36.13;102757.91;5006864;28;20037;-76
2023/05/08 05:41:13;;;;;;;5.32;3.33;;;22.60;85.70;;;23.93;35.29;102774.47;4991872;28;20509;-77
2023/05/08 05:43:38;;;;;;;8.18;3.97;;;21.60;88.60;;;23.34;37.24;102758.81;4986722;28;20099;-77
2023/05/08 05:46:08;;;;;;;6.25;3.95;;;22.00;89.20;;;25.42;34.42;102792.25;4993275;28;20131;-77
2023/05/08 05:48:35;;;;;;;7.28;3.92;;;22.80;87.20;;;25.98;33.13;102804.97;4967471;28;20133;-77
2023/05/08 05:51:01;;;;;;;7.45;4.05;;;23.40;86.80;;;27.03;31.90;102804.56;4974579;28;20117;-76
2023/05/08 05:53:27;;;;;;;6.05;3.50;;;23.90;86.50;;;27.00;31.08;102806.53;4984808;28;20057;-77
2023/05/08 05:55:54;;;;;;;6.30;3.65;;;23.80;84.90;;;25.93;33.29;102810.72;5011494;28;20084;-76
2023/05/08 05:58:22;;;;;;;8.65;3.97;;;23.70;85.30;;;26.06;33.35;102812.47;5023291;28;20034;-76
2023/05/08 06:00:48;;;;;;;6.35;3.40;;;23.60;85.60;;;26.28;33.34;102811.59;4989067;28;20042;-76
2023/05/08 06:03:14;;;;;;;4.88;2.65;;;23.50;83.70;;;24.20;34.18;102784.22;4999607;28;20118;-76
2023/05/08 06:05:40;;;;;;;;;;;23.50;85.70;;;25.77;33.21;102812.91;5007333;28;20108;-77
2023/05/08 06:08:07;;;;;;;14.80;3.92;;;23.50;84.50;;;25.53;33.72;102815.69;5007222;28;19979;-76
2023/05/08 06:10:33;;;;;;;5.10;3.92;;;23.50;83.60;;;25.15;34.14;102809.53;5006113;28;20109;-75
2023/05/08 06:12:59;;;;;;;7.18;3.92;;;23.40;84.60;;;25.03;34.44;102806.91;4995229;28;20030;-76
2023/05/08 06:15:25;;;;;;;8.40;3.70;;;24.00;85.10;;;26.67;32.25;102831.81;4986917;28;20037;-76
2023/05/08 06:17:51;;;;;;;4.93;3.13;;;24.60;81.80;;;26.70;31.78;102828.88;5004963;28;20120;-76
2023/05/08 06:20:17;;;;;;;5.18;3.42;;;24.90;82.00;;;27.07;31.61;102847.44;5005552;28;20052;-76
2023/05/08 06:22:43;;;;;;;5.03;3.10;;;25.20;79.10;;;26.84;31.52;102835.81;4999060;28;20499;-76
2023/05/08 06:25:09;;;;;;;6.15;3.03;;;25.60;80.00;;;27.15;31.14;102844.09;4996487;28;20038;-76
2023/05/08 06:27:35;;;;;;;9.52;3.03;;;25.40;78.50;;;26.57;31.89;102834.44;4980317;28;20041;-76
2023/05/08 06:30:03;;;;;;;4.97;3.00;;;25.00;77.00;;;25.17;33.01;102829.13;4974874;28;20044;-77
2023/05/08 06:32:30;;;;;;;6.70;2.42;;;25.00;77.00;;;24.27;32.57;102815.09;5005413;28;20033;-77
2023/05/08 06:34:55;;;;;;;4.07;2.95;;;24.80;78.70;;;25.23;32.65;102832.41;4987959;28;20125;-76
2023/05/08 06:37:22;;;;;;;4.57;2.60;;;24.90;77.50;;;25.49;32.39;102836.63;5006186;28;20117;-76
2023/05/08 06:39:48;;;;;;;3.47;2.70;;;25.10;78.20;;;25.18;32.17;102827.28;4973471;28;20115;-76
2023/05/08 06:42:14;;;;;;;7.57;2.80;;;25.30;76.20;;;25.41;32.04;102827.41;5007363;28;20537;-76
2023/05/08 06:44:40;;;;;;;4.88;2.78;;;25.40;76.40;;;25.80;31.65;102834.25;5006940;28;20095;-76
2023/05/08 06:47:07;;;;;;;5.57;2.67;;;25.00;74.90;;;24.03;33.64;102806.94;4983891;28;20116;-76
2023/05/08 06:49:35;;;;;;;4.60;2.60;;;25.10;74.90;;;24.50;32.70;102818.00;4996689;28;20453;-76
2023/05/08 06:52:01;;;;;;;3.97;2.70;;;24.70;74.20;;;23.93;33.17;102806.75;4990461;28;20033;-76
2023/05/08 06:54:27;;;;;;;6.95;2.90;;;24.60;74.30;;;24.14;32.52;102815.13;4985582;28;20493;-76
2023/05/08 06:56:53;;;;;;;;;;;24.70;76.80;;;22.64;32.63;102793.09;4989417;28;20049;-76
2023/05/08 06:59:20;;;;;;;4.03;2.13;;;24.40;74.70;;;23.14;33.88;102794.28;4986647;28;19939;-76
2023/05/08 07:01:46;;;;;;;3.47;2.63;;;24.30;77.30;;;23.75;32.80;102814.28;4983278;28;20394;-76
2023/05/08 07:04:11;;;;;;;3.63;2.50;;;24.60;74.60;;;24.59;32.13;102822.69;5010646;28;20133;-76
2023/05/08 07:06:37;;;;;;;5.15;2.83;;;24.00;72.30;;;22.48;33.93;102791.41;5008654;28;20046;-76
2023/05/08 07:09:03;;;;;;;;;;;24.00;75.60;;;21.95;34.37;102784.06;5001702;28;20041;-76
2023/05/08 07:11:29;;;;;;;5.05;2.70;;;23.80;75.70;;;22.29;34.25;102780.13;4981863;28;20410;-76
2023/05/08 07:13:55;;;;;;;4.72;2.50;;;23.70;74.10;;;22.86;33.73;102781.78;4992916;28;20461;-76
2023/05/08 07:16:21;;;;;;;4.95;2.63;;;23.80;74.60;;;22.66;33.56;102780.44;5011102;28;20617;-76
2023/05/08 07:18:46;;;;;;;3.50;2.33;;;23.90;74.30;;;22.46;33.81;102785.28;4983508;28;20139;-76
2023/05/08 07:21:14;;;;;;;;;;;23.90;75.10;;;21.86;33.76;102772.94;4990294;28;20042;-77
2023/05/08 07:23:43;;;;;;;5.03;2.63;;;23.80;75.40;;;22.88;34.15;102787.94;5008303;28;20018;-77
2023/05/08 07:26:08;;;;;;;5.82;2.40;;;23.70;72.70;;;22.43;33.85;102777.41;5009382;28;20621;-76
2023/05/08 07:28:34;;;;;;;6.10;2.45;;;23.60;73.20;;;22.03;34.32;102771.88;5009026;28;20050;-76
2023/05/08 07:31:07;;;;;;;4.05;2.20;;;23.70;74.90;;;22.52;34.15;102784.84;5005056;28;20034;-76
2023/05/08 07:33:33;;;;;;;6.57;2.40;;;23.80;74.70;;;22.19;34.22;102776.28;5007134;28;20041;-76
2023/05/08 07:36:00;;;;;;;5.68;2.53;;;23.60;74.60;;;22.21;34.59;102771.69;4997363;28;20441;-76
2023/05/08 07:38:26;;;;;;;5.25;2.47;;;23.50;75.10;;;22.24;34.71;102769.66;5010390;28;20037;-76
2023/05/08 07:40:55;;;;;;;5.55;2.28;;;22.50;75.70;;;20.21;36.72;102741.47;5000337;28;20125;-77
2023/05/08 07:43:24;;;;;;;3.30;1.80;;;22.50;76.00;;;20.55;35.68;102750.28;4990398;28;20441;-77
2023/05/08 07:45:53;;;;;;;4.55;2.30;;;22.60;75.00;;;21.56;35.00;102759.59;4991484;28;20059;-76
2023/05/08 07:48:19;;;;;;;5.18;2.30;;;22.70;75.10;;;21.50;35.01;102762.66;4999849;28;20032;-76
2023/05/08 07:50:45;;;;;;;3.63;2.20;;;22.70;75.20;;;21.44;34.77;102755.84;5011253;28;20045;-77
2023/05/08 07:53:10;;;;;;;6.72;2.13;;;22.50;73.50;;;19.98;35.26;102737.41;5001789;28;20443;-78
2023/05/08 07:55:36;;;;;;;4.60;2.25;;;22.10;75.10;;;20.76;35.55;102742.03;5009045;28;20457;-77
2023/05/08 07:58:02;;;;;;;;;;;22.10;77.10;;;20.77;35.31;102743.75;4993329;28;20044;-77
2023/05/08 08:00:30;;;;;;;3.72;2.38;;;21.80;76.20;;;20.06;36.81;102727.16;5001571;28;20374;-75
2023/05/08 08:02:56;;;;;;;4.05;2.30;;;21.90;76.30;;;20.61;36.10;102733.91;5011515;28;20033;-76
2023/05/08 08:05:22;;;;;;;4.13;2.40;;;21.70;77.30;;;20.31;36.67;102722.25;4995849;28;20095;-76
2023/05/08 08:07:47;;;;;;;3.75;2.25;;;21.60;77.70;;;20.66;36.24;102729.16;4994068;28;20829;-76
2023/05/08 08:10:13;;;;;;;4.25;2.10;;;22.00;79.40;;;21.29;35.80;102735.28;4987984;28;20052;-76
2023/05/08 08:12:39;;;;;;;2.65;2.10;;;21.90;76.40;;;20.03;35.94;102723.78;4993886;28;20038;-77
2023/05/08 08:15:06;;;;;;;5.63;2.22;;;21.40;76.50;;;19.92;36.36;102711.00;5000261;28;20034;-76
2023/05/08 08:17:31;;;;;;;3.17;1.63;;;21.00;77.40;;;18.55;37.83;102686.00;4996201;28;20026;-76
2023/05/08 08:20:00;;;;;;;5.60;1.95;;;20.60;79.00;;;19.17;38.35;102683.78;5003339;28;20398;-77
2023/05/08 08:22:26;;;;;;;4.47;2.20;;;20.70;78.80;;;19.71;37.11;102697.00;4973759;28;20080;-77
2023/05/08 08:24:54;;;;;;;4.25;2.30;;;20.50;78.40;;;19.35;37.56;102689.97;4994273;28;20233;-76
2023/05/08 08:27:20;;;;;;;5.55;2.20;;;20.40;81.00;;;19.33;38.50;102689.19;5009513;28;20038;-76
2023/05/08 08:29:46;;;;;;;5.70;2.50;;;20.40;81.00;;;19.30;38.38;102684.00;4998487;28;20036;-76
2023/05/08 08:32:12;;;;;;;5.50;2.40;;;19.80;80.70;;;18.33;39.54;102674.63;5010560;28;20029;-77
2023/05/08 08:34:38;;;;;;;4.97;2.30;;;19.70;81.70;;;18.61;39.15;102668.81;5005603;28;20050;-77
2023/05/08 08:37:05;;;;;;;5.50;2.20;;;19.60;83.30;;;18.85;39.80;102669.41;4992686;28;20495;-76
2023/05/08 08:39:34;;;;;;;9.50;2.45;;;19.50;82.60;;;18.44;39.52;102661.63;5008838;23;20134;-76
2023/05/08 08:42:01;;;;;;;3.15;1.98;;;18.90;79.60;;;17.17;39.95;102634.66;5015479;28;20026;-77
2023/05/08 08:44:27;;;;;;;5.40;2.20;;;18.20;81.70;;;16.09;41.52;102616.97;5016895;28;20079;-77
2023/05/08 08:46:57;;;;;;;6.88;2.28;;;17.90;83.70;;;16.35;42.18;102620.38;5022792;28;20037;-77
2023/05/08 08:49:33;;;;;;;3.28;1.80;;;17.60;84.10;;;15.93;42.43;102618.50;5032471;28;20102;-76
2023/05/08 08:52:16;;;;;;;4.82;2.00;;;17.50;84.30;;;15.87;42.30;102618.72;5044985;28;20094;-77
2023/05/08 08:54:45;;;;;;;4.32;2.10;;;17.40;84.40;;;15.93;42.45;102615.84;5043188;28;20041;-76
2023/05/08 08:57:13;;;;;;;4.72;2.15;;;17.40;85.80;;;16.19;42.67;102615.66;5042371;28;20039;-76
2023/05/08 08:59:41;;;;;;;8.07;2.50;;;17.40;85.30;;;16.01;42.76;102607.59;5027408;28;20083;-77
2023/05/08 09:02:16;;;;;;;4.95;2.15;;;17.40;87.60;;;16.12;43.31;102610.66;5023144;28;20099;-77
2023/05/08 09:04:42;;;;;;;6.65;2.13;;;17.10;85.50;;;15.59;43.20;102603.81;5031665;28;20041;-76
2023/05/08 09:07:10;;;;;;;3.08;2.10;;;17.00;85.90;;;15.55;43.64;102597.78;5010343;28;20053;-76
2023/05/08 09:09:45;;;;;;;5.95;2.20;;;16.90;85.60;;;15.58;42.97;102591.47;5008762;28;20497;-77
2023/05/08 09:12:14;;;;;;;5.35;2.22;;;16.80;86.30;;;15.57;43.54;102595.03;5009362;28;20107;-76
2023/05/08 09:14:43;;;;;;;4.35;2.20;;;16.90;86.90;;;15.80;43.39;102588.88;5028406;28;20060;-77
2023/05/08 09:17:09;;;;;;;4.90;1.98;;;17.00;87.80;;;16.06;43.89;102582.53;5009892;28;20043;-77
2023/05/08 09:19:36;;;;;;;6.43;2.00;;;17.10;87.80;;;16.24;43.39;102588.03;5039038;28;20040;-77
2023/05/08 09:22:05;;;;;;;6.65;2.28;;;17.30;87.30;;;16.23;42.98;102588.97;5020373;28;20061;-78
2023/05/08 09:24:59;;;;;;;4.25;2.00;;;17.30;87.30;;;16.30;43.16;102585.13;5006132;28;20036;-77
2023/05/08 09:27:29;;;;;;;7.97;2.15;;;17.40;87.80;;;16.39;43.23;102587.41;5014225;28;20112;-77
2023/05/08 09:30:11;;;;;;;3.63;2.03;;;17.50;86.70;;;16.49;42.82;102595.88;5023187;28;20108;-77
2023/05/08 09:32:41;;;;;;;11.27;2.28;;;17.60;85.70;;;16.32;42.40;102584.13;5018767;28;20456;-77
2023/05/08 09:35:12;;;;;;;5.22;2.30;;;17.60;86.90;;;16.29;42.97;102589.59;5014217;28;20036;-77
2023/05/08 09:37:45;;;;;;;4.78;2.40;;;17.50;86.80;;;16.31;43.05;102585.06;5023380;28;20112;-77
2023/05/08 09:40:21;;;;;;;5.13;2.15;;;17.50;86.30;;;16.16;43.16;102585.72;5023266;28;20033;-77
2023/05/08 09:42:49;;;;;;;17.10;2.60;;;17.30;86.90;;;15.92;43.53;102579.59;5031276;28;20128;-77
2023/05/08 09:45:26;;;;;;;3.60;1.75;;;17.30;88.80;;;16.08;44.06;102575.38;5026461;28;20127;-76
2023/05/08 09:47:58;;;;;;;4.88;1.40;;;17.20;85.90;;;15.46;43.38;102560.06;5014085;28;20495;-78
2023/05/08 09:50:27;;;;;;;6.28;2.28;;;17.10;89.80;;;15.89;44.64;102559.31;5024356;28;20049;-78
2023/05/08 09:52:53;;;;;;;3.72;1.58;;;17.10;88.40;;;15.84;43.90;102555.13;5015439;28;20029;-77
2023/05/08 09:55:21;;;;;;;9.23;2.25;;;17.10;86.30;;;16.07;43.53;102571.00;5000447;28;20044;-77
2023/05/08 09:58:02;;;;;;;6.35;2.10;;;17.30;85.00;;;16.23;42.49;102571.22;5006141;28;20693;-78
2023/05/08 10:00:31;;;;;;;3.75;1.77;;;17.40;85.30;;;16.23;42.02;102581.88;5031733;28;20067;-78
2023/05/08 10:03:02;;;;;;;4.35;2.00;;;17.50;86.30;;;16.30;42.51;102570.03;4971169;28;20106;-78
2023/05/08 10:05:36;;;;;;;10.55;2.22;;;17.40;86.20;;;16.25;43.12;102577.34;5026016;28;20033;-77
2023/05/08 10:08:20;;;;;;;3.47;1.90;;;17.40;87.20;;;16.27;43.19;102564.88;5035646;28;20124;-78
2023/05/08 10:10:50;;;;;;;6.85;2.63;;;17.50;86.20;;;16.52;42.97;102570.03;4990996;28;20156;-78
2023/05/08 10:13:24;;;;;;;5.75;2.00;;;17.70;88.00;;;16.74;42.60;102572.63;4989076;28;20037;-79
2023/05/08 10:15:54;;;;;;;2.80;1.58;;;17.90;87.90;;;17.00;42.57;102576.84;5006783;28;20037;-78
2023/05/08 10:20:54;;;;;;;10.30;2.50;;;17.80;87.40;;;16.66;42.68;102564.09;5021586;23;20049;-77
2023/05/08 10:23:24;;;;;;;2.85;1.90;;;17.90;85.30;;;16.81;42.34;102571.44;5000113;28;20039;-77
2023/05/08 10:25:59;;;;;;;9.18;1.90;;;17.90;85.60;;;16.71;42.50;102559.44;5003355;28;20195;-78
2023/05/08 10:29:09;;;;;;;4.72;2.00;;;18.00;87.20;;;17.22;42.63;102563.44;5008295;28;20048;-77
2023/05/08 10:31:44;;;;;;;3.08;1.90;;;18.30;86.00;;;17.33;42.00;102568.25;4980822;28;20084;-77